<?xml version="1.0" encoding="UTF-8"?>
 <gpx
 xmlns="http://www.topografix.com/GPX/1/1"
 version="1.1"
 creator="Wikipedia"
 xmlns:xsi="http://www.w3.org/2001/XMLSchema-instance"
 xsi:schemaLocation="http://www.topografix.com/GPX/1/1 http://www.topografix.com/GPX/1/1/gpx.xsd">
	<time>2026-09-05T21:29:47Z</time>
	<metadata>
 		<name>gps</name>
 	</metadata>
	<trk>
		<name>exercise</name>
		<trkseg>
			<trkpt lat="54.962091642" lon="82.942519872">
				<time>2026-09-05T21:30:53Z</time>
				<ele>135.149</ele>
			</trkpt>
			<trkpt lat="54.962091642" lon="82.942519872">
				<time>2026-09-05T21:30:57Z</time>
				<ele>135.149</ele>
			</trkpt>
			<trkpt lat="54.962091642" lon="82.942519872">
				<time>2026-09-05T21:31:02Z</time>
				<ele>135.149</ele>
			</trkpt>
			<trkpt lat="54.962091642" lon="82.942519872">
				<time>2026-09-05T21:31:06Z</time>
				<ele>135.149</ele>
			</trkpt>
			<trkpt lat="54.962091642" lon="82.942519872">
				<time>2026-09-05T21:31:10Z</time>
				<ele>135.149</ele>
			</trkpt>
			<trkpt lat="54.962091642" lon="82.942519872">
				<time>2026-09-05T21:31:14Z</time>
				<ele>135.149</ele>
			</trkpt>
			<trkpt lat="54.962091642" lon="82.942519872">
				<time>2026-09-05T21:31:19Z</time>
				<ele>135.149</ele>
			</trkpt>
			<trkpt lat="54.962091642" lon="82.942519872">
				<time>2026-09-05T21:31:24Z</time>
				<ele>135.149</ele>
			</trkpt>
			<trkpt lat="54.962091642" lon="82.942519872">
				<time>2026-09-05T21:31:29Z</time>
				<ele>135.149</ele>
			</trkpt>
			<trkpt lat="54.962091642" lon="82.942519872">
				<time>2026-09-05T21:31:34Z</time>
				<ele>135.149</ele>
			</trkpt>
			<trkpt lat="54.962091642" lon="82.942519872">
				<time>2026-09-05T21:31:39Z</time>
				<ele>135.149</ele>
			</trkpt>
			<trkpt lat="54.962091642" lon="82.942519872">
				<time>2026-09-05T21:31:44Z</time>
				<ele>135.149</ele>
			</trkpt>
			<trkpt lat="54.962091642" lon="82.942519872">
				<time>2026-09-05T21:31:49Z</time>
				<ele>135.149</ele>
			</trkpt>
			<trkpt lat="54.962091642" lon="82.942519872">
				<time>2026-09-05T21:31:54Z</time>
				<ele>135.149</ele>
			</trkpt>
			<trkpt lat="54.959895327" lon="82.938790548">
				<time>2026-09-05T21:32:03Z</time>
				<ele>123.79</ele>
			</trkpt>
			<trkpt lat="54.959895327" lon="82.938790548">
				<time>2026-09-05T21:32:08Z</time>
				<ele>123.79</ele>
			</trkpt>
			<trkpt lat="54.959895327" lon="82.938790548">
				<time>2026-09-05T21:32:12Z</time>
				<ele>123.79</ele>
			</trkpt>
			<trkpt lat="54.959895327" lon="82.938790548">
				<time>2026-09-05T21:32:17Z</time>
				<ele>123.79</ele>
			</trkpt>
			<trkpt lat="54.959895327" lon="82.938790548">
				<time>2026-09-05T21:32:21Z</time>
				<ele>123.79</ele>
			</trkpt>
			<trkpt lat="54.959895327" lon="82.938790548">
				<time>2026-09-05T21:32:26Z</time>
				<ele>123.79</ele>
			</trkpt>
			<trkpt lat="54.959895327" lon="82.938790548">
				<time>2026-09-05T21:32:31Z</time>
				<ele>123.79</ele>
			</trkpt>
			<trkpt lat="54.959895327" lon="82.938790548">
				<time>2026-09-05T21:32:36Z</time>
				<ele>123.79</ele>
			</trkpt>
			<trkpt lat="54.959895327" lon="82.938790548">
				<time>2026-09-05T21:32:41Z</time>
				<ele>123.79</ele>
			</trkpt>
			<trkpt lat="54.959895327" lon="82.938790548">
				<time>2026-09-05T21:32:46Z</time>
				<ele>123.79</ele>
			</trkpt>
			<trkpt lat="54.959895327" lon="82.938790548">
				<time>2026-09-05T21:32:51Z</time>
				<ele>123.79</ele>
			</trkpt>
			<trkpt lat="54.959895327" lon="82.938790548">
				<time>2026-09-05T21:32:56Z</time>
				<ele>123.79</ele>
			</trkpt>
			<trkpt lat="54.959895327" lon="82.938790548">
				<time>2026-09-05T21:33:01Z</time>
				<ele>123.79</ele>
			</trkpt>
			<trkpt lat="54.959895327" lon="82.938790548">
				<time>2026-09-05T21:33:06Z</time>
				<ele>123.79</ele>
			</trkpt>
			<trkpt lat="54.959880004" lon="82.938762102">
				<time>2026-09-05T21:33:13Z</time>
				<ele>135.123</ele>
			</trkpt>
			<trkpt lat="54.959880004" lon="82.938762102">
				<time>2026-09-05T21:33:18Z</time>
				<ele>135.123</ele>
			</trkpt>
			<trkpt lat="54.959880004" lon="82.938762102">
				<time>2026-09-05T21:33:23Z</time>
				<ele>135.123</ele>
			</trkpt>
			<trkpt lat="54.959880004" lon="82.938762102">
				<time>2026-09-05T21:33:28Z</time>
				<ele>135.123</ele>
			</trkpt>
			<trkpt lat="54.959880004" lon="82.938762102">
				<time>2026-09-05T21:33:33Z</time>
				<ele>135.123</ele>
			</trkpt>
			<trkpt lat="54.959880004" lon="82.938762102">
				<time>2026-09-05T21:33:38Z</time>
				<ele>135.123</ele>
			</trkpt>
			<trkpt lat="54.959880004" lon="82.938762102">
				<time>2026-09-05T21:33:43Z</time>
				<ele>135.123</ele>
			</trkpt>
			<trkpt lat="54.959880004" lon="82.938762102">
				<time>2026-09-05T21:33:48Z</time>
				<ele>135.123</ele>
			</trkpt>
			<trkpt lat="54.959880004" lon="82.938762102">
				<time>2026-09-05T21:33:53Z</time>
				<ele>135.123</ele>
			</trkpt>
			<trkpt lat="54.959880004" lon="82.938762102">
				<time>2026-09-05T21:33:58Z</time>
				<ele>135.123</ele>
			</trkpt>
			<trkpt lat="54.959880004" lon="82.938762102">
				<time>2026-09-05T21:34:03Z</time>
				<ele>135.123</ele>
			</trkpt>
			<trkpt lat="54.959880004" lon="82.938762102">
				<time>2026-09-05T21:34:08Z</time>
				<ele>135.123</ele>
			</trkpt>
			<trkpt lat="54.959880004" lon="82.938762102">
				<time>2026-09-05T21:34:13Z</time>
				<ele>135.123</ele>
			</trkpt>
			<trkpt lat="54.954139621" lon="82.937289307">
				<time>2026-09-05T21:34:22Z</time>
				<ele>141.499</ele>
			</trkpt>
			<trkpt lat="54.954139621" lon="82.937289307">
				<time>2026-09-05T21:34:27Z</time>
				<ele>141.499</ele>
			</trkpt>
			<trkpt lat="54.954139621" lon="82.937289307">
				<time>2026-09-05T21:34:32Z</time>
				<ele>141.499</ele>
			</trkpt>
			<trkpt lat="54.954139621" lon="82.937289307">
				<time>2026-09-05T21:34:37Z</time>
				<ele>141.499</ele>
			</trkpt>
			<trkpt lat="54.954139621" lon="82.937289307">
				<time>2026-09-05T21:34:42Z</time>
				<ele>141.499</ele>
			</trkpt>
			<trkpt lat="54.954139621" lon="82.937289307">
				<time>2026-09-05T21:34:47Z</time>
				<ele>141.499</ele>
			</trkpt>
			<trkpt lat="54.954139621" lon="82.937289307">
				<time>2026-09-05T21:34:52Z</time>
				<ele>141.499</ele>
			</trkpt>
			<trkpt lat="54.954139621" lon="82.937289307">
				<time>2026-09-05T21:34:57Z</time>
				<ele>141.499</ele>
			</trkpt>
			<trkpt lat="54.954139621" lon="82.937289307">
				<time>2026-09-05T21:35:02Z</time>
				<ele>141.499</ele>
			</trkpt>
			<trkpt lat="54.954139621" lon="82.937289307">
				<time>2026-09-05T21:35:07Z</time>
				<ele>141.499</ele>
			</trkpt>
			<trkpt lat="54.954139621" lon="82.937289307">
				<time>2026-09-05T21:35:12Z</time>
				<ele>141.499</ele>
			</trkpt>
			<trkpt lat="54.954139621" lon="82.937289307">
				<time>2026-09-05T21:35:17Z</time>
				<ele>141.499</ele>
			</trkpt>
			<trkpt lat="54.954139621" lon="82.937289307">
				<time>2026-09-05T21:35:22Z</time>
				<ele>141.499</ele>
			</trkpt>
			<trkpt lat="54.948869018" lon="82.93233349">
				<time>2026-09-05T21:35:29Z</time>
				<ele>130.719</ele>
			</trkpt>
			<trkpt lat="54.948869018" lon="82.93233349">
				<time>2026-09-05T21:35:34Z</time>
				<ele>130.719</ele>
			</trkpt>
			<trkpt lat="54.948869018" lon="82.93233349">
				<time>2026-09-05T21:35:39Z</time>
				<ele>130.719</ele>
			</trkpt>
			<trkpt lat="54.948869018" lon="82.93233349">
				<time>2026-09-05T21:35:44Z</time>
				<ele>130.719</ele>
			</trkpt>
			<trkpt lat="54.948869018" lon="82.93233349">
				<time>2026-09-05T21:35:49Z</time>
				<ele>130.719</ele>
			</trkpt>
			<trkpt lat="54.948869018" lon="82.93233349">
				<time>2026-09-05T21:35:54Z</time>
				<ele>130.719</ele>
			</trkpt>
			<trkpt lat="54.948869018" lon="82.93233349">
				<time>2026-09-05T21:35:59Z</time>
				<ele>130.719</ele>
			</trkpt>
			<trkpt lat="54.948869018" lon="82.93233349">
				<time>2026-09-05T21:36:04Z</time>
				<ele>130.719</ele>
			</trkpt>
			<trkpt lat="54.948869018" lon="82.93233349">
				<time>2026-09-05T21:36:09Z</time>
				<ele>130.719</ele>
			</trkpt>
			<trkpt lat="54.948869018" lon="82.93233349">
				<time>2026-09-05T21:36:14Z</time>
				<ele>130.719</ele>
			</trkpt>
			<trkpt lat="54.948869018" lon="82.93233349">
				<time>2026-09-05T21:36:19Z</time>
				<ele>130.719</ele>
			</trkpt>
			<trkpt lat="54.948869018" lon="82.93233349">
				<time>2026-09-05T21:36:24Z</time>
				<ele>130.719</ele>
			</trkpt>
			<trkpt lat="54.948869018" lon="82.93233349">
				<time>2026-09-05T21:36:29Z</time>
				<ele>130.719</ele>
			</trkpt>
			<trkpt lat="54.949674999" lon="82.919534012">
				<time>2026-09-05T21:36:36Z</time>
				<ele>132.586</ele>
			</trkpt>
			<trkpt lat="54.949674999" lon="82.919534012">
				<time>2026-09-05T21:36:41Z</time>
				<ele>132.586</ele>
			</trkpt>
			<trkpt lat="54.949674999" lon="82.919534012">
				<time>2026-09-05T21:36:46Z</time>
				<ele>132.586</ele>
			</trkpt>
			<trkpt lat="54.949674999" lon="82.919534012">
				<time>2026-09-05T21:36:51Z</time>
				<ele>132.586</ele>
			</trkpt>
			<trkpt lat="54.949674999" lon="82.919534012">
				<time>2026-09-05T21:36:56Z</time>
				<ele>132.586</ele>
			</trkpt>
			<trkpt lat="54.949674999" lon="82.919534012">
				<time>2026-09-05T21:37:01Z</time>
				<ele>132.586</ele>
			</trkpt>
			<trkpt lat="54.949674999" lon="82.919534012">
				<time>2026-09-05T21:37:06Z</time>
				<ele>132.586</ele>
			</trkpt>
			<trkpt lat="54.949674999" lon="82.919534012">
				<time>2026-09-05T21:37:11Z</time>
				<ele>132.586</ele>
			</trkpt>
			<trkpt lat="54.949674999" lon="82.919534012">
				<time>2026-09-05T21:37:16Z</time>
				<ele>132.586</ele>
			</trkpt>
			<trkpt lat="54.949674999" lon="82.919534012">
				<time>2026-09-05T21:37:21Z</time>
				<ele>132.586</ele>
			</trkpt>
			<trkpt lat="54.949674999" lon="82.919534012">
				<time>2026-09-05T21:37:26Z</time>
				<ele>132.586</ele>
			</trkpt>
			<trkpt lat="54.949674999" lon="82.919534012">
				<time>2026-09-05T21:37:31Z</time>
				<ele>132.586</ele>
			</trkpt>
			<trkpt lat="54.949674999" lon="82.919534012">
				<time>2026-09-05T21:37:36Z</time>
				<ele>132.586</ele>
			</trkpt>
			<trkpt lat="54.950272667" lon="82.90941664">
				<time>2026-09-05T21:37:43Z</time>
				<ele>132.754</ele>
			</trkpt>
			<trkpt lat="54.950272667" lon="82.90941664">
				<time>2026-09-05T21:37:48Z</time>
				<ele>132.754</ele>
			</trkpt>
			<trkpt lat="54.950272667" lon="82.90941664">
				<time>2026-09-05T21:37:53Z</time>
				<ele>132.754</ele>
			</trkpt>
			<trkpt lat="54.950272667" lon="82.90941664">
				<time>2026-09-05T21:37:58Z</time>
				<ele>132.754</ele>
			</trkpt>
			<trkpt lat="54.950272667" lon="82.90941664">
				<time>2026-09-05T21:38:03Z</time>
				<ele>132.754</ele>
			</trkpt>
			<trkpt lat="54.950272667" lon="82.90941664">
				<time>2026-09-05T21:38:08Z</time>
				<ele>132.754</ele>
			</trkpt>
			<trkpt lat="54.950272667" lon="82.90941664">
				<time>2026-09-05T21:38:13Z</time>
				<ele>132.754</ele>
			</trkpt>
			<trkpt lat="54.950272667" lon="82.90941664">
				<time>2026-09-05T21:38:18Z</time>
				<ele>132.754</ele>
			</trkpt>
			<trkpt lat="54.950272667" lon="82.90941664">
				<time>2026-09-05T21:38:23Z</time>
				<ele>132.754</ele>
			</trkpt>
			<trkpt lat="54.950272667" lon="82.90941664">
				<time>2026-09-05T21:38:28Z</time>
				<ele>132.754</ele>
			</trkpt>
			<trkpt lat="54.950272667" lon="82.90941664">
				<time>2026-09-05T21:38:33Z</time>
				<ele>132.754</ele>
			</trkpt>
			<trkpt lat="54.950272667" lon="82.90941664">
				<time>2026-09-05T21:38:38Z</time>
				<ele>132.754</ele>
			</trkpt>
			<trkpt lat="54.950272667" lon="82.90941664">
				<time>2026-09-05T21:38:43Z</time>
				<ele>132.754</ele>
			</trkpt>
			<trkpt lat="54.95086758" lon="82.899479646">
				<time>2026-09-05T21:38:52Z</time>
				<ele>131.245</ele>
			</trkpt>
			<trkpt lat="54.95086758" lon="82.899479646">
				<time>2026-09-05T21:38:57Z</time>
				<ele>131.245</ele>
			</trkpt>
			<trkpt lat="54.95086758" lon="82.899479646">
				<time>2026-09-05T21:39:02Z</time>
				<ele>131.245</ele>
			</trkpt>
			<trkpt lat="54.95086758" lon="82.899479646">
				<time>2026-09-05T21:39:07Z</time>
				<ele>131.245</ele>
			</trkpt>
			<trkpt lat="54.95086758" lon="82.899479646">
				<time>2026-09-05T21:39:12Z</time>
				<ele>131.245</ele>
			</trkpt>
			<trkpt lat="54.95086758" lon="82.899479646">
				<time>2026-09-05T21:39:17Z</time>
				<ele>131.245</ele>
			</trkpt>
			<trkpt lat="54.95086758" lon="82.899479646">
				<time>2026-09-05T21:39:22Z</time>
				<ele>131.245</ele>
			</trkpt>
			<trkpt lat="54.95086758" lon="82.899479646">
				<time>2026-09-05T21:39:27Z</time>
				<ele>131.245</ele>
			</trkpt>
			<trkpt lat="54.95086758" lon="82.899479646">
				<time>2026-09-05T21:39:32Z</time>
				<ele>131.245</ele>
			</trkpt>
			<trkpt lat="54.95086758" lon="82.899479646">
				<time>2026-09-05T21:39:37Z</time>
				<ele>131.245</ele>
			</trkpt>
			<trkpt lat="54.95086758" lon="82.899479646">
				<time>2026-09-05T21:39:42Z</time>
				<ele>131.245</ele>
			</trkpt>
			<trkpt lat="54.95086758" lon="82.899479646">
				<time>2026-09-05T21:39:47Z</time>
				<ele>131.245</ele>
			</trkpt>
			<trkpt lat="54.95086758" lon="82.899479646">
				<time>2026-09-05T21:39:52Z</time>
				<ele>131.245</ele>
			</trkpt>
			<trkpt lat="54.948722841" lon="82.898916003">
				<time>2026-09-05T21:40:01Z</time>
				<ele>128.986</ele>
			</trkpt>
			<trkpt lat="54.948722841" lon="82.898916003">
				<time>2026-09-05T21:40:06Z</time>
				<ele>128.986</ele>
			</trkpt>
			<trkpt lat="54.948722841" lon="82.898916003">
				<time>2026-09-05T21:40:11Z</time>
				<ele>128.986</ele>
			</trkpt>
			<trkpt lat="54.948722841" lon="82.898916003">
				<time>2026-09-05T21:40:16Z</time>
				<ele>128.986</ele>
			</trkpt>
			<trkpt lat="54.948722841" lon="82.898916003">
				<time>2026-09-05T21:40:21Z</time>
				<ele>128.986</ele>
			</trkpt>
			<trkpt lat="54.948722841" lon="82.898916003">
				<time>2026-09-05T21:40:26Z</time>
				<ele>128.986</ele>
			</trkpt>
			<trkpt lat="54.948722841" lon="82.898916003">
				<time>2026-09-05T21:40:31Z</time>
				<ele>128.986</ele>
			</trkpt>
			<trkpt lat="54.948722841" lon="82.898916003">
				<time>2026-09-05T21:40:36Z</time>
				<ele>128.986</ele>
			</trkpt>
			<trkpt lat="54.948722841" lon="82.898916003">
				<time>2026-09-05T21:40:41Z</time>
				<ele>128.986</ele>
			</trkpt>
			<trkpt lat="54.948722841" lon="82.898916003">
				<time>2026-09-05T21:40:46Z</time>
				<ele>128.986</ele>
			</trkpt>
			<trkpt lat="54.948722841" lon="82.898916003">
				<time>2026-09-05T21:40:51Z</time>
				<ele>128.986</ele>
			</trkpt>
			<trkpt lat="54.948722841" lon="82.898916003">
				<time>2026-09-05T21:40:56Z</time>
				<ele>128.986</ele>
			</trkpt>
			<trkpt lat="54.948722841" lon="82.898916003">
				<time>2026-09-05T21:41:01Z</time>
				<ele>128.986</ele>
			</trkpt>
			<trkpt lat="54.945116421" lon="82.898240803">
				<time>2026-09-05T21:41:08Z</time>
				<ele>136.656</ele>
			</trkpt>
			<trkpt lat="54.945116421" lon="82.898240803">
				<time>2026-09-05T21:41:13Z</time>
				<ele>136.656</ele>
			</trkpt>
			<trkpt lat="54.945116421" lon="82.898240803">
				<time>2026-09-05T21:41:18Z</time>
				<ele>136.656</ele>
			</trkpt>
			<trkpt lat="54.945116421" lon="82.898240803">
				<time>2026-09-05T21:41:23Z</time>
				<ele>136.656</ele>
			</trkpt>
			<trkpt lat="54.945116421" lon="82.898240803">
				<time>2026-09-05T21:41:28Z</time>
				<ele>136.656</ele>
			</trkpt>
			<trkpt lat="54.945116421" lon="82.898240803">
				<time>2026-09-05T21:41:33Z</time>
				<ele>136.656</ele>
			</trkpt>
			<trkpt lat="54.945116421" lon="82.898240803">
				<time>2026-09-05T21:41:38Z</time>
				<ele>136.656</ele>
			</trkpt>
			<trkpt lat="54.945116421" lon="82.898240803">
				<time>2026-09-05T21:41:43Z</time>
				<ele>136.656</ele>
			</trkpt>
			<trkpt lat="54.945116421" lon="82.898240803">
				<time>2026-09-05T21:41:48Z</time>
				<ele>136.656</ele>
			</trkpt>
			<trkpt lat="54.945116421" lon="82.898240803">
				<time>2026-09-05T21:41:53Z</time>
				<ele>136.656</ele>
			</trkpt>
			<trkpt lat="54.945116421" lon="82.898240803">
				<time>2026-09-05T21:41:58Z</time>
				<ele>136.656</ele>
			</trkpt>
			<trkpt lat="54.945116421" lon="82.898240803">
				<time>2026-09-05T21:42:03Z</time>
				<ele>136.656</ele>
			</trkpt>
			<trkpt lat="54.945116421" lon="82.898240803">
				<time>2026-09-05T21:42:08Z</time>
				<ele>136.656</ele>
			</trkpt>
			<trkpt lat="54.942441395" lon="82.897024695">
				<time>2026-09-05T21:42:17Z</time>
				<ele>128.264</ele>
			</trkpt>
			<trkpt lat="54.942441395" lon="82.897024695">
				<time>2026-09-05T21:42:22Z</time>
				<ele>128.264</ele>
			</trkpt>
			<trkpt lat="54.942441395" lon="82.897024695">
				<time>2026-09-05T21:42:27Z</time>
				<ele>128.264</ele>
			</trkpt>
			<trkpt lat="54.942441395" lon="82.897024695">
				<time>2026-09-05T21:42:32Z</time>
				<ele>128.264</ele>
			</trkpt>
			<trkpt lat="54.942441395" lon="82.897024695">
				<time>2026-09-05T21:42:37Z</time>
				<ele>128.264</ele>
			</trkpt>
			<trkpt lat="54.942441395" lon="82.897024695">
				<time>2026-09-05T21:42:42Z</time>
				<ele>128.264</ele>
			</trkpt>
			<trkpt lat="54.942441395" lon="82.897024695">
				<time>2026-09-05T21:42:47Z</time>
				<ele>128.264</ele>
			</trkpt>
			<trkpt lat="54.942441395" lon="82.897024695">
				<time>2026-09-05T21:42:52Z</time>
				<ele>128.264</ele>
			</trkpt>
			<trkpt lat="54.942441395" lon="82.897024695">
				<time>2026-09-05T21:42:57Z</time>
				<ele>128.264</ele>
			</trkpt>
			<trkpt lat="54.942441395" lon="82.897024695">
				<time>2026-09-05T21:43:02Z</time>
				<ele>128.264</ele>
			</trkpt>
			<trkpt lat="54.942441395" lon="82.897024695">
				<time>2026-09-05T21:43:07Z</time>
				<ele>128.264</ele>
			</trkpt>
			<trkpt lat="54.942441395" lon="82.897024695">
				<time>2026-09-05T21:43:12Z</time>
				<ele>128.264</ele>
			</trkpt>
			<trkpt lat="54.942441395" lon="82.897024695">
				<time>2026-09-05T21:43:17Z</time>
				<ele>128.264</ele>
			</trkpt>
			<trkpt lat="54.943197079" lon="82.883389029">
				<time>2026-09-05T21:43:24Z</time>
				<ele>123.299</ele>
			</trkpt>
			<trkpt lat="54.943197079" lon="82.883389029">
				<time>2026-09-05T21:43:29Z</time>
				<ele>123.299</ele>
			</trkpt>
			<trkpt lat="54.943197079" lon="82.883389029">
				<time>2026-09-05T21:43:34Z</time>
				<ele>123.299</ele>
			</trkpt>
			<trkpt lat="54.943197079" lon="82.883389029">
				<time>2026-09-05T21:43:39Z</time>
				<ele>123.299</ele>
			</trkpt>
			<trkpt lat="54.943197079" lon="82.883389029">
				<time>2026-09-05T21:43:44Z</time>
				<ele>123.299</ele>
			</trkpt>
			<trkpt lat="54.943197079" lon="82.883389029">
				<time>2026-09-05T21:43:49Z</time>
				<ele>123.299</ele>
			</trkpt>
			<trkpt lat="54.943197079" lon="82.883389029">
				<time>2026-09-05T21:43:54Z</time>
				<ele>123.299</ele>
			</trkpt>
			<trkpt lat="54.943197079" lon="82.883389029">
				<time>2026-09-05T21:43:59Z</time>
				<ele>123.299</ele>
			</trkpt>
			<trkpt lat="54.943197079" lon="82.883389029">
				<time>2026-09-05T21:44:04Z</time>
				<ele>123.299</ele>
			</trkpt>
			<trkpt lat="54.943197079" lon="82.883389029">
				<time>2026-09-05T21:44:09Z</time>
				<ele>123.299</ele>
			</trkpt>
			<trkpt lat="54.943197079" lon="82.883389029">
				<time>2026-09-05T21:44:14Z</time>
				<ele>123.299</ele>
			</trkpt>
			<trkpt lat="54.943197079" lon="82.883389029">
				<time>2026-09-05T21:44:19Z</time>
				<ele>123.299</ele>
			</trkpt>
			<trkpt lat="54.943197079" lon="82.883389029">
				<time>2026-09-05T21:44:24Z</time>
				<ele>123.299</ele>
			</trkpt>
			<trkpt lat="54.944224428" lon="82.880817857">
				<time>2026-09-05T21:44:31Z</time>
				<ele>125.8</ele>
			</trkpt>
			<trkpt lat="54.944224428" lon="82.880817857">
				<time>2026-09-05T21:44:36Z</time>
				<ele>125.8</ele>
			</trkpt>
			<trkpt lat="54.944224428" lon="82.880817857">
				<time>2026-09-05T21:44:41Z</time>
				<ele>125.8</ele>
			</trkpt>
			<trkpt lat="54.944224428" lon="82.880817857">
				<time>2026-09-05T21:44:46Z</time>
				<ele>125.8</ele>
			</trkpt>
			<trkpt lat="54.944224428" lon="82.880817857">
				<time>2026-09-05T21:44:51Z</time>
				<ele>125.8</ele>
			</trkpt>
			<trkpt lat="54.944224428" lon="82.880817857">
				<time>2026-09-05T21:44:56Z</time>
				<ele>125.8</ele>
			</trkpt>
			<trkpt lat="54.944224428" lon="82.880817857">
				<time>2026-09-05T21:45:01Z</time>
				<ele>125.8</ele>
			</trkpt>
		</trkseg>
	</trk>
</gpx>
